sensor_id;sensor_type;location;lat;lon;timestamp;temperature;humidity
9849;DHT22;4963;51.444;6.528;2023-02-24T00:01:10;6.90;99.90
9849;DHT22;4963;51.444;6.528;2023-02-24T00:03:38;7.00;99.90
9849;DHT22;4963;51.444;6.528;2023-02-24T00:06:11;7.00;99.90
9849;DHT22;4963;51.444;6.528;2023-02-24T00:08:38;7.00;99.90
9849;DHT22;4963;51.444;6.528;2023-02-24T00:11:09;6.90;99.90
9849;DHT22;4963;51.444;6.528;2023-02-24T00:13:37;6.90;99.90
9849;DHT22;4963;51.444;6.528;2023-02-24T00:16:04;6.80;99.90
9849;DHT22;4963;51.444;6.528;2023-02-24T00:18:32;6.80;99.90
9849;DHT22;4963;51.444;6.528;2023-02-24T00:21:04;6.70;99.90
9849;DHT22;4963;51.444;6.528;2023-02-24T00:23:34;6.70;99.90
9849;DHT22;4963;51.444;6.528;2023-02-24T00:26:03;6.60;99.90
9849;DHT22;4963;51.444;6.528;2023-02-24T00:28:31;6.60;99.90
9849;DHT22;4963;51.444;6.528;2023-02-24T00:31:02;6.60;99.90
9849;DHT22;4963;51.444;6.528;2023-02-24T00:33:30;6.50;99.90
9849;DHT22;4963;51.444;6.528;2023-02-24T00:36:04;6.40;99.90
9849;DHT22;4963;51.444;6.528;2023-02-24T00:38:30;6.40;99.90
9849;DHT22;4963;51.444;6.528;2023-02-24T00:41:07;6.30;99.90
9849;DHT22;4963;51.444;6.528;2023-02-24T00:43:35;6.40;99.90
9849;DHT22;4963;51.444;6.528;2023-02-24T00:46:02;6.40;99.90
9849;DHT22;4963;51.444;6.528;2023-02-24T00:48:36;6.40;99.90
9849;DHT22;4963;51.444;6.528;2023-02-24T00:51:05;6.30;99.90
9849;DHT22;4963;51.444;6.528;2023-02-24T00:53:32;6.30;99.90
9849;DHT22;4963;51.444;6.528;2023-02-24T00:55:59;6.30;99.90
9849;DHT22;4963;51.444;6.528;2023-02-24T00:58:27;6.20;99.90
9849;DHT22;4963;51.444;6.528;2023-02-24T01:00:56;6.20;99.90
9849;DHT22;4963;51.444;6.528;2023-02-24T01:03:23;6.30;99.90
9849;DHT22;4963;51.444;6.528;2023-02-24T01:05:51;6.10;99.90
9849;DHT22;4963;51.444;6.528;2023-02-24T01:08:18;6.10;99.90
9849;DHT22;4963;51.444;6.528;2023-02-24T01:10:54;6.10;99.90
9849;DHT22;4963;51.444;6.528;2023-02-24T01:13:44;6.10;99.90
9849;DHT22;4963;51.444;6.528;2023-02-24T01:16:12;6.10;99.90
9849;DHT22;4963;51.444;6.528;2023-02-24T01:18:43;6.10;99.90
9849;DHT22;4963;51.444;6.528;2023-02-24T01:21:10;6.10;99.90
9849;DHT22;4963;51.444;6.528;2023-02-24T01:23:39;6.10;99.90
9849;DHT22;4963;51.444;6.528;2023-02-24T01:26:06;6.20;99.90
9849;DHT22;4963;51.444;6.528;2023-02-24T01:28:33;6.20;99.90
9849;DHT22;4963;51.444;6.528;2023-02-24T01:31:02;6.20;99.90
9849;DHT22;4963;51.444;6.528;2023-02-24T01:33:30;6.20;99.90
9849;DHT22;4963;51.444;6.528;2023-02-24T01:36:07;6.20;99.90
9849;DHT22;4963;51.444;6.528;2023-02-24T01:38:34;6.20;99.90
9849;DHT22;4963;51.444;6.528;2023-02-24T01:41:02;6.20;99.90
9849;DHT22;4963;51.444;6.528;2023-02-24T01:43:30;6.20;99.90
9849;DHT22;4963;51.444;6.528;2023-02-24T01:45:57;6.20;99.90
9849;DHT22;4963;51.444;6.528;2023-02-24T01:48:26;6.20;99.90
9849;DHT22;4963;51.444;6.528;2023-02-24T01:50:54;6.20;99.90
9849;DHT22;4963;51.444;6.528;2023-02-24T01:53:21;6.10;99.90
9849;DHT22;4963;51.444;6.528;2023-02-24T01:55:49;6.00;99.90
9849;DHT22;4963;51.444;6.528;2023-02-24T01:58:21;5.90;99.90
9849;DHT22;4963;51.444;6.528;2023-02-24T02:00:49;5.90;99.90
9849;DHT22;4963;51.444;6.528;2023-02-24T02:03:26;5.80;99.90
9849;DHT22;4963;51.444;6.528;2023-02-24T02:05:58;5.90;99.90
9849;DHT22;4963;51.444;6.528;2023-02-24T02:08:25;5.90;99.90
9849;DHT22;4963;51.444;6.528;2023-02-24T02:10:54;5.90;99.90
9849;DHT22;4963;51.444;6.528;2023-02-24T02:13:24;5.70;99.90
9849;DHT22;4963;51.444;6.528;2023-02-24T02:16:02;5.90;99.90
9849;DHT22;4963;51.444;6.528;2023-02-24T02:18:41;5.90;99.90
9849;DHT22;4963;51.444;6.528;2023-02-24T02:21:48;5.90;99.90
9849;DHT22;4963;51.444;6.528;2023-02-24T02:24:36;5.90;99.90
9849;DHT22;4963;51.444;6.528;2023-02-24T02:27:22;5.90;99.90
9849;DHT22;4963;51.444;6.528;2023-02-24T02:35:57;5.80;99.90
9849;DHT22;4963;51.444;6.528;2023-02-24T02:38:29;5.80;99.90
9849;DHT22;4963;51.444;6.528;2023-02-24T02:41:02;5.80;99.90
9849;DHT22;4963;51.444;6.528;2023-02-24T02:43:37;5.70;99.90
9849;DHT22;4963;51.444;6.528;2023-02-24T02:46:11;5.70;99.90
9849;DHT22;4963;51.444;6.528;2023-02-24T02:48:47;5.70;99.90
9849;DHT22;4963;51.444;6.528;2023-02-24T02:51:17;5.70;99.90
9849;DHT22;4963;51.444;6.528;2023-02-24T02:53:50;5.60;99.90
9849;DHT22;4963;51.444;6.528;2023-02-24T02:56:24;5.60;99.90
9849;DHT22;4963;51.444;6.528;2023-02-24T02:58:55;5.50;99.90
9849;DHT22;4963;51.444;6.528;2023-02-24T03:01:27;5.50;99.90
9849;DHT22;4963;51.444;6.528;2023-02-24T03:03:57;5.50;99.90
9849;DHT22;4963;51.444;6.528;2023-02-24T03:06:29;5.50;99.90
9849;DHT22;4963;51.444;6.528;2023-02-24T03:08:59;5.40;99.90
9849;DHT22;4963;51.444;6.528;2023-02-24T03:11:36;5.40;99.90
9849;DHT22;4963;51.444;6.528;2023-02-24T03:14:04;5.40;99.90
9849;DHT22;4963;51.444;6.528;2023-02-24T03:16:37;5.40;99.90
9849;DHT22;4963;51.444;6.528;2023-02-24T03:19:07;5.40;99.90
9849;DHT22;4963;51.444;6.528;2023-02-24T03:21:37;5.40;99.90
9849;DHT22;4963;51.444;6.528;2023-02-24T03:24:06;5.30;99.90
9849;DHT22;4963;51.444;6.528;2023-02-24T03:26:39;5.30;99.90
9849;DHT22;4963;51.444;6.528;2023-02-24T03:29:10;5.30;99.90
9849;DHT22;4963;51.444;6.528;2023-02-24T03:31:44;5.20;99.90
9849;DHT22;4963;51.444;6.528;2023-02-24T03:34:14;5.20;99.90
9849;DHT22;4963;51.444;6.528;2023-02-24T03:36:45;5.00;99.90
9849;DHT22;4963;51.444;6.528;2023-02-24T03:39:12;5.20;99.90
9849;DHT22;4963;51.444;6.528;2023-02-24T03:41:45;5.20;99.90
9849;DHT22;4963;51.444;6.528;2023-02-24T03:44:15;5.40;99.90
9849;DHT22;4963;51.444;6.528;2023-02-24T03:46:42;5.20;99.90
9849;DHT22;4963;51.444;6.528;2023-02-24T03:49:10;5.30;99.90
9849;DHT22;4963;51.444;6.528;2023-02-24T03:51:38;5.20;99.90
9849;DHT22;4963;51.444;6.528;2023-02-24T03:54:22;5.30;99.90
9849;DHT22;4963;51.444;6.528;2023-02-24T03:57:02;5.30;99.90
9849;DHT22;4963;51.444;6.528;2023-02-24T03:59:39;5.30;99.90
9849;DHT22;4963;51.444;6.528;2023-02-24T04:02:12;5.20;99.90
9849;DHT22;4963;51.444;6.528;2023-02-24T04:04:44;5.30;99.90
9849;DHT22;4963;51.444;6.528;2023-02-24T04:07:14;5.20;99.90
9849;DHT22;4963;51.444;6.528;2023-02-24T04:09:47;5.20;99.90
9849;DHT22;4963;51.444;6.528;2023-02-24T04:12:18;5.20;99.90
9849;DHT22;4963;51.444;6.528;2023-02-24T04:14:49;5.30;99.90
9849;DHT22;4963;51.444;6.528;2023-02-24T04:17:20;5.30;99.90
9849;DHT22;4963;51.444;6.528;2023-02-24T04:19:51;5.20;99.90
9849;DHT22;4963;51.444;6.528;2023-02-24T04:22:21;5.30;99.90
9849;DHT22;4963;51.444;6.528;2023-02-24T04:24:54;5.30;99.90
9849;DHT22;4963;51.444;6.528;2023-02-24T04:27:23;5.40;99.90
9849;DHT22;4963;51.444;6.528;2023-02-24T04:29:54;5.40;99.90
9849;DHT22;4963;51.444;6.528;2023-02-24T04:32:25;5.40;99.90
9849;DHT22;4963;51.444;6.528;2023-02-24T04:35:00;5.30;99.90
9849;DHT22;4963;51.444;6.528;2023-02-24T04:37:27;5.30;99.90
9849;DHT22;4963;51.444;6.528;2023-02-24T04:39:59;5.30;99.90
9849;DHT22;4963;51.444;6.528;2023-02-24T04:42:26;5.30;99.90
9849;DHT22;4963;51.444;6.528;2023-02-24T04:44:53;5.40;99.90
9849;DHT22;4963;51.444;6.528;2023-02-24T04:47:23;5.40;99.90
9849;DHT22;4963;51.444;6.528;2023-02-24T04:49:53;5.40;99.90
9849;DHT22;4963;51.444;6.528;2023-02-24T04:52:20;5.50;99.90
9849;DHT22;4963;51.444;6.528;2023-02-24T04:54:46;5.50;99.90
9849;DHT22;4963;51.444;6.528;2023-02-24T04:57:15;5.60;99.90
9849;DHT22;4963;51.444;6.528;2023-02-24T04:59:41;5.60;99.90
9849;DHT22;4963;51.444;6.528;2023-02-24T05:02:08;5.60;99.90
9849;DHT22;4963;51.444;6.528;2023-02-24T05:04:35;5.60;99.90
9849;DHT22;4963;51.444;6.528;2023-02-24T05:07:03;5.60;99.90
9849;DHT22;4963;51.444;6.528;2023-02-24T05:09:30;5.70;99.90
9849;DHT22;4963;51.444;6.528;2023-02-24T05:11:57;5.60;99.90
9849;DHT22;4963;51.444;6.528;2023-02-24T05:14:26;5.70;99.90
9849;DHT22;4963;51.444;6.528;2023-02-24T05:16:53;5.70;99.90
9849;DHT22;4963;51.444;6.528;2023-02-24T05:19:25;5.60;99.90
9849;DHT22;4963;51.444;6.528;2023-02-24T05:22:09;5.70;99.90
9849;DHT22;4963;51.444;6.528;2023-02-24T05:24:39;5.70;99.90
9849;DHT22;4963;51.444;6.528;2023-02-24T05:27:06;5.60;99.90
9849;DHT22;4963;51.444;6.528;2023-02-24T05:29:36;5.70;99.90
9849;DHT22;4963;51.444;6.528;2023-02-24T05:32:04;5.60;99.90
9849;DHT22;4963;51.444;6.528;2023-02-24T05:34:32;5.70;99.90
9849;DHT22;4963;51.444;6.528;2023-02-24T05:37:01;5.70;99.90
9849;DHT22;4963;51.444;6.528;2023-02-24T05:39:31;5.70;99.90
9849;DHT22;4963;51.444;6.528;2023-02-24T05:41:59;5.70;99.90
9849;DHT22;4963;51.444;6.528;2023-02-24T05:44:31;5.70;99.90
9849;DHT22;4963;51.444;6.528;2023-02-24T05:47:01;5.70;99.90
9849;DHT22;4963;51.444;6.528;2023-02-24T05:49:31;5.70;99.90
9849;DHT22;4963;51.444;6.528;2023-02-24T05:52:00;5.70;99.90
9849;DHT22;4963;51.444;6.528;2023-02-24T05:54:28;5.70;99.90
9849;DHT22;4963;51.444;6.528;2023-02-24T05:56:57;5.70;99.90
9849;DHT22;4963;51.444;6.528;2023-02-24T05:59:24;5.70;99.90
9849;DHT22;4963;51.444;6.528;2023-02-24T06:01:58;5.70;99.90
9849;DHT22;4963;51.444;6.528;2023-02-24T06:04:27;5.80;99.90
9849;DHT22;4963;51.444;6.528;2023-02-24T06:07:05;5.80;99.90
9849;DHT22;4963;51.444;6.528;2023-02-24T06:09:32;5.80;99.90
9849;DHT22;4963;51.444;6.528;2023-02-24T06:12:00;5.80;99.90
9849;DHT22;4963;51.444;6.528;2023-02-24T06:14:28;5.80;99.90
9849;DHT22;4963;51.444;6.528;2023-02-24T06:16:54;5.70;99.90
9849;DHT22;4963;51.444;6.528;2023-02-24T06:19:21;5.70;99.90
9849;DHT22;4963;51.444;6.528;2023-02-24T06:21:51;5.80;99.90
9849;DHT22;4963;51.444;6.528;2023-02-24T06:24:18;5.80;99.90
9849;DHT22;4963;51.444;6.528;2023-02-24T06:26:45;5.90;99.90
9849;DHT22;4963;51.444;6.528;2023-02-24T06:29:16;5.80;99.90
9849;DHT22;4963;51.444;6.528;2023-02-24T06:31:43;5.80;99.90
9849;DHT22;4963;51.444;6.528;2023-02-24T06:34:13;5.80;99.90
9849;DHT22;4963;51.444;6.528;2023-02-24T06:36:40;5.80;99.90
9849;DHT22;4963;51.444;6.528;2023-02-24T06:39:09;5.80;99.90
9849;DHT22;4963;51.444;6.528;2023-02-24T06:41:39;5.80;99.90
9849;DHT22;4963;51.444;6.528;2023-02-24T06:44:07;5.80;99.90
9849;DHT22;4963;51.444;6.528;2023-02-24T06:46:34;5.80;99.90
9849;DHT22;4963;51.444;6.528;2023-02-24T06:49:01;5.60;99.90
9849;DHT22;4963;51.444;6.528;2023-02-24T06:51:28;5.70;99.90
9849;DHT22;4963;51.444;6.528;2023-02-24T06:53:55;5.60;99.90
9849;DHT22;4963;51.444;6.528;2023-02-24T06:56:25;5.50;99.90
9849;DHT22;4963;51.444;6.528;2023-02-24T06:58:54;5.50;99.90
9849;DHT22;4963;51.444;6.528;2023-02-24T07:01:23;5.50;99.90
9849;DHT22;4963;51.444;6.528;2023-02-24T07:03:51;5.40;99.90
9849;DHT22;4963;51.444;6.528;2023-02-24T07:06:38;5.50;99.90
9849;DHT22;4963;51.444;6.528;2023-02-24T07:09:07;5.50;99.90
9849;DHT22;4963;51.444;6.528;2023-02-24T07:11:37;5.60;99.90
9849;DHT22;4963;51.444;6.528;2023-02-24T07:14:06;5.60;99.90
9849;DHT22;4963;51.444;6.528;2023-02-24T07:16:34;5.70;99.90
9849;DHT22;4963;51.444;6.528;2023-02-24T07:19:02;5.70;99.90
9849;DHT22;4963;51.444;6.528;2023-02-24T07:21:34;5.70;99.90
9849;DHT22;4963;51.444;6.528;2023-02-24T07:24:04;5.70;99.90
9849;DHT22;4963;51.444;6.528;2023-02-24T07:26:31;5.60;99.90
9849;DHT22;4963;51.444;6.528;2023-02-24T07:28:59;5.70;99.90
9849;DHT22;4963;51.444;6.528;2023-02-24T07:31:29;5.70;99.90
9849;DHT22;4963;51.444;6.528;2023-02-24T07:33:57;5.80;99.90
9849;DHT22;4963;51.444;6.528;2023-02-24T07:36:27;5.80;99.90
9849;DHT22;4963;51.444;6.528;2023-02-24T07:38:55;5.60;99.90
9849;DHT22;4963;51.444;6.528;2023-02-24T07:41:24;5.60;99.90
9849;DHT22;4963;51.444;6.528;2023-02-24T07:43:53;5.50;99.90
9849;DHT22;4963;51.444;6.528;2023-02-24T07:46:23;5.50;99.90
9849;DHT22;4963;51.444;6.528;2023-02-24T07:48:51;5.50;99.90
9849;DHT22;4963;51.444;6.528;2023-02-24T07:51:21;5.60;99.90
9849;DHT22;4963;51.444;6.528;2023-02-24T07:53:49;5.70;99.90
9849;DHT22;4963;51.444;6.528;2023-02-24T07:56:18;5.70;99.90
9849;DHT22;4963;51.444;6.528;2023-02-24T07:58:51;5.70;99.90
9849;DHT22;4963;51.444;6.528;2023-02-24T08:01:25;5.80;99.90
9849;DHT22;4963;51.444;6.528;2023-02-24T08:03:55;5.80;99.90
9849;DHT22;4963;51.444;6.528;2023-02-24T08:06:22;5.90;99.90
9849;DHT22;4963;51.444;6.528;2023-02-24T08:08:56;5.60;99.90
9849;DHT22;4963;51.444;6.528;2023-02-24T08:11:41;5.80;99.90
9849;DHT22;4963;51.444;6.528;2023-02-24T08:14:10;5.80;99.90
9849;DHT22;4963;51.444;6.528;2023-02-24T08:16:40;5.80;99.90
9849;DHT22;4963;51.444;6.528;2023-02-24T08:19:09;5.90;99.90
9849;DHT22;4963;51.444;6.528;2023-02-24T08:21:38;5.90;99.90
9849;DHT22;4963;51.444;6.528;2023-02-24T08:24:07;5.80;99.90
9849;DHT22;4963;51.444;6.528;2023-02-24T08:26:42;5.80;99.90
9849;DHT22;4963;51.444;6.528;2023-02-24T08:29:10;5.90;99.90
9849;DHT22;4963;51.444;6.528;2023-02-24T08:31:38;5.90;99.90
9849;DHT22;4963;51.444;6.528;2023-02-24T08:34:07;5.90;99.90
9849;DHT22;4963;51.444;6.528;2023-02-24T08:36:34;5.90;99.90
9849;DHT22;4963;51.444;6.528;2023-02-24T08:39:01;5.90;99.90
9849;DHT22;4963;51.444;6.528;2023-02-24T08:41:28;5.90;99.90
9849;DHT22;4963;51.444;6.528;2023-02-24T08:44:12;5.90;99.90
9849;DHT22;4963;51.444;6.528;2023-02-24T08:46:45;5.80;99.90
9849;DHT22;4963;51.444;6.528;2023-02-24T08:49:14;5.80;99.90
9849;DHT22;4963;51.444;6.528;2023-02-24T08:51:43;5.70;99.90
9849;DHT22;4963;51.444;6.528;2023-02-24T08:54:12;5.80;99.90
9849;DHT22;4963;51.444;6.528;2023-02-24T08:56:41;5.80;99.90
9849;DHT22;4963;51.444;6.528;2023-02-24T08:59:15;5.70;99.90
9849;DHT22;4963;51.444;6.528;2023-02-24T09:02:05;5.70;99.90
9849;DHT22;4963;51.444;6.528;2023-02-24T09:04:44;5.70;99.90
9849;DHT22;4963;51.444;6.528;2023-02-24T09:07:13;5.70;99.90
9849;DHT22;4963;51.444;6.528;2023-02-24T09:09:40;5.80;99.90
9849;DHT22;4963;51.444;6.528;2023-02-24T09:12:08;5.80;99.90
9849;DHT22;4963;51.444;6.528;2023-02-24T09:14:36;5.80;99.90
9849;DHT22;4963;51.444;6.528;2023-02-24T09:17:06;5.80;99.90
9849;DHT22;4963;51.444;6.528;2023-02-24T09:19:37;5.80;99.90
9849;DHT22;4963;51.444;6.528;2023-02-24T09:22:23;5.90;99.90
9849;DHT22;4963;51.444;6.528;2023-02-24T09:25:08;5.70;99.90
9849;DHT22;4963;51.444;6.528;2023-02-24T09:27:47;5.80;99.90
9849;DHT22;4963;51.444;6.528;2023-02-24T09:30:18;5.80;99.90
9849;DHT22;4963;51.444;6.528;2023-02-24T09:33:10;5.90;99.90
9849;DHT22;4963;51.444;6.528;2023-02-24T09:35:44;5.90;99.90
9849;DHT22;4963;51.444;6.528;2023-02-24T09:38:11;5.90;99.90
9849;DHT22;4963;51.444;6.528;2023-02-24T09:40:41;5.90;99.90
9849;DHT22;4963;51.444;6.528;2023-02-24T09:43:16;6.00;99.90
9849;DHT22;4963;51.444;6.528;2023-02-24T09:45:58;6.10;99.90
9849;DHT22;4963;51.444;6.528;2023-02-24T09:48:36;6.10;99.90
9849;DHT22;4963;51.444;6.528;2023-02-24T09:51:13;6.20;99.90
9849;DHT22;4963;51.444;6.528;2023-02-24T09:53:46;6.20;99.90
9849;DHT22;4963;51.444;6.528;2023-02-24T09:56:19;6.30;99.90
9849;DHT22;4963;51.444;6.528;2023-02-24T09:58:55;6.30;99.90
9849;DHT22;4963;51.444;6.528;2023-02-24T10:01:35;6.20;99.90
9849;DHT22;4963;51.444;6.528;2023-02-24T10:04:31;6.20;99.90
9849;DHT22;4963;51.444;6.528;2023-02-24T10:07:04;6.10;99.90
9849;DHT22;4963;51.444;6.528;2023-02-24T10:09:33;6.10;99.90
9849;DHT22;4963;51.444;6.528;2023-02-24T10:12:06;6.10;99.90
9849;DHT22;4963;51.444;6.528;2023-02-24T10:14:38;6.10;99.90
9849;DHT22;4963;51.444;6.528;2023-02-24T10:17:13;6.00;99.90
9849;DHT22;4963;51.444;6.528;2023-02-24T10:19:54;6.10;99.90
9849;DHT22;4963;51.444;6.528;2023-02-24T10:22:36;6.10;99.90
9849;DHT22;4963;51.444;6.528;2023-02-24T10:25:24;6.10;99.90
9849;DHT22;4963;51.444;6.528;2023-02-24T10:27:59;6.20;99.90
9849;DHT22;4963;51.444;6.528;2023-02-24T10:30:37;6.10;99.90
9849;DHT22;4963;51.444;6.528;2023-02-24T10:33:17;6.40;99.90
9849;DHT22;4963;51.444;6.528;2023-02-24T10:35:46;6.20;99.90
9849;DHT22;4963;51.444;6.528;2023-02-24T10:38:14;6.30;99.90
9849;DHT22;4963;51.444;6.528;2023-02-24T10:40:47;6.30;99.90
9849;DHT22;4963;51.444;6.528;2023-02-24T10:43:22;6.20;99.90
9849;DHT22;4963;51.444;6.528;2023-02-24T10:45:55;6.30;99.90
9849;DHT22;4963;51.444;6.528;2023-02-24T10:48:31;6.30;99.90
9849;DHT22;4963;51.444;6.528;2023-02-24T10:51:08;6.30;99.90
9849;DHT22;4963;51.444;6.528;2023-02-24T10:53:36;6.20;99.90
9849;DHT22;4963;51.444;6.528;2023-02-24T10:56:05;6.20;99.90
9849;DHT22;4963;51.444;6.528;2023-02-24T10:59:00;6.20;99.90
9849;DHT22;4963;51.444;6.528;2023-02-24T11:01:42;5.80;99.90
9849;DHT22;4963;51.444;6.528;2023-02-24T11:04:29;6.00;99.90
9849;DHT22;4963;51.444;6.528;2023-02-24T11:07:19;6.00;99.90
9849;DHT22;4963;51.444;6.528;2023-02-24T11:10:11;6.10;99.90
9849;DHT22;4963;51.444;6.528;2023-02-24T11:12:43;6.00;99.90
9849;DHT22;4963;51.444;6.528;2023-02-24T11:15:31;6.10;99.90
9849;DHT22;4963;51.444;6.528;2023-02-24T11:18:19;6.10;99.90
9849;DHT22;4963;51.444;6.528;2023-02-24T11:20:50;6.00;99.90
9849;DHT22;4963;51.444;6.528;2023-02-24T11:23:23;6.10;99.90
9849;DHT22;4963;51.444;6.528;2023-02-24T11:25:51;6.10;99.90
9849;DHT22;4963;51.444;6.528;2023-02-24T11:28:39;6.20;99.90
9849;DHT22;4963;51.444;6.528;2023-02-24T11:31:19;6.20;99.90
9849;DHT22;4963;51.444;6.528;2023-02-24T11:33:57;6.20;99.90
9849;DHT22;4963;51.444;6.528;2023-02-24T11:36:32;6.10;99.90
9849;DHT22;4963;51.444;6.528;2023-02-24T11:39:12;6.10;99.90
9849;DHT22;4963;51.444;6.528;2023-02-24T11:41:50;6.10;99.90
9849;DHT22;4963;51.444;6.528;2023-02-24T11:44:22;6.10;99.90
9849;DHT22;4963;51.444;6.528;2023-02-24T11:46:54;6.00;99.90
9849;DHT22;4963;51.444;6.528;2023-02-24T11:49:26;6.00;99.90
9849;DHT22;4963;51.444;6.528;2023-02-24T11:51:56;6.10;99.90
9849;DHT22;4963;51.444;6.528;2023-02-24T11:54:26;6.10;99.90
9849;DHT22;4963;51.444;6.528;2023-02-24T11:56:56;6.00;99.90
9849;DHT22;4963;51.444;6.528;2023-02-24T11:59:30;6.10;99.90
9849;DHT22;4963;51.444;6.528;2023-02-24T12:02:04;6.10;99.90
9849;DHT22;4963;51.444;6.528;2023-02-24T12:04:41;6.20;99.90
9849;DHT22;4963;51.444;6.528;2023-02-24T12:07:17;6.10;99.90
9849;DHT22;4963;51.444;6.528;2023-02-24T12:09:50;6.10;99.90
9849;DHT22;4963;51.444;6.528;2023-02-24T12:12:22;6.10;99.90
9849;DHT22;4963;51.444;6.528;2023-02-24T12:14:56;6.10;99.90
9849;DHT22;4963;51.444;6.528;2023-02-24T12:17:30;6.10;99.90
9849;DHT22;4963;51.444;6.528;2023-02-24T12:20:02;6.00;99.90
9849;DHT22;4963;51.444;6.528;2023-02-24T12:22:36;6.00;99.90
9849;DHT22;4963;51.444;6.528;2023-02-24T12:25:12;6.10;99.90
9849;DHT22;4963;51.444;6.528;2023-02-24T12:27:51;6.10;99.90
9849;DHT22;4963;51.444;6.528;2023-02-24T12:30:31;6.10;99.90
9849;DHT22;4963;51.444;6.528;2023-02-24T12:33:10;6.20;99.90
9849;DHT22;4963;51.444;6.528;2023-02-24T12:35:46;6.10;99.90
9849;DHT22;4963;51.444;6.528;2023-02-24T12:38:31;6.10;99.90
9849;DHT22;4963;51.444;6.528;2023-02-24T12:41:14;6.10;99.90
9849;DHT22;4963;51.444;6.528;2023-02-24T12:43:46;6.00;99.90
9849;DHT22;4963;51.444;6.528;2023-02-24T12:46:20;6.00;99.90
9849;DHT22;4963;51.444;6.528;2023-02-24T12:49:18;6.00;99.90
9849;DHT22;4963;51.444;6.528;2023-02-24T12:51:55;6.00;99.90
9849;DHT22;4963;51.444;6.528;2023-02-24T12:54:28;6.10;99.90
9849;DHT22;4963;51.444;6.528;2023-02-24T12:57:01;6.00;99.90
9849;DHT22;4963;51.444;6.528;2023-02-24T12:59:35;6.10;99.90
9849;DHT22;4963;51.444;6.528;2023-02-24T13:02:06;6.10;99.90
9849;DHT22;4963;51.444;6.528;2023-02-24T13:04:42;6.00;99.90
9849;DHT22;4963;51.444;6.528;2023-02-24T13:07:21;5.90;99.90
9849;DHT22;4963;51.444;6.528;2023-02-24T13:10:02;6.00;99.90
9849;DHT22;4963;51.444;6.528;2023-02-24T13:12:35;6.00;99.90
9849;DHT22;4963;51.444;6.528;2023-02-24T13:15:04;6.10;99.90
9849;DHT22;4963;51.444;6.528;2023-02-24T13:17:31;6.00;99.90
9849;DHT22;4963;51.444;6.528;2023-02-24T13:20:09;6.10;99.90
9849;DHT22;4963;51.444;6.528;2023-02-24T13:22:39;6.20;99.90
9849;DHT22;4963;51.444;6.528;2023-02-24T13:25:17;6.20;99.90
9849;DHT22;4963;51.444;6.528;2023-02-24T13:27:56;6.30;99.90
9849;DHT22;4963;51.444;6.528;2023-02-24T13:30:34;6.20;99.90
9849;DHT22;4963;51.444;6.528;2023-02-24T13:33:06;6.10;99.90
9849;DHT22;4963;51.444;6.528;2023-02-24T13:35:44;6.20;99.90
9849;DHT22;4963;51.444;6.528;2023-02-24T13:38:24;6.10;99.90
9849;DHT22;4963;51.444;6.528;2023-02-24T13:40:51;6.10;99.90
9849;DHT22;4963;51.444;6.528;2023-02-24T13:43:26;6.20;99.90
9849;DHT22;4963;51.444;6.528;2023-02-24T13:45:57;6.30;99.90
9849;DHT22;4963;51.444;6.528;2023-02-24T13:48:39;6.30;99.90
9849;DHT22;4963;51.444;6.528;2023-02-24T13:51:27;6.20;99.90
9849;DHT22;4963;51.444;6.528;2023-02-24T13:54:09;6.30;99.90
9849;DHT22;4963;51.444;6.528;2023-02-24T13:56:42;6.30;99.90
9849;DHT22;4963;51.444;6.528;2023-02-24T13:59:23;6.30;99.90
9849;DHT22;4963;51.444;6.528;2023-02-24T14:01:57;6.30;99.90
9849;DHT22;4963;51.444;6.528;2023-02-24T14:04:26;6.30;99.90
9849;DHT22;4963;51.444;6.528;2023-02-24T14:06:56;6.30;99.90
9849;DHT22;4963;51.444;6.528;2023-02-24T14:09:30;6.30;99.90
9849;DHT22;4963;51.444;6.528;2023-02-24T14:12:00;6.30;99.90
9849;DHT22;4963;51.444;6.528;2023-02-24T14:14:31;6.30;99.90
9849;DHT22;4963;51.444;6.528;2023-02-24T14:16:58;6.30;99.90
9849;DHT22;4963;51.444;6.528;2023-02-24T14:19:25;6.30;99.90
9849;DHT22;4963;51.444;6.528;2023-02-24T14:21:53;6.30;99.90
9849;DHT22;4963;51.444;6.528;2023-02-24T14:24:21;6.30;99.90
9849;DHT22;4963;51.444;6.528;2023-02-24T14:26:50;6.20;99.90
9849;DHT22;4963;51.444;6.528;2023-02-24T14:29:18;6.30;99.90
9849;DHT22;4963;51.444;6.528;2023-02-24T14:31:49;6.30;99.90
9849;DHT22;4963;51.444;6.528;2023-02-24T14:34:20;6.30;99.90
9849;DHT22;4963;51.444;6.528;2023-02-24T14:36:48;6.30;99.90
9849;DHT22;4963;51.444;6.528;2023-02-24T14:39:18;6.30;99.90
9849;DHT22;4963;51.444;6.528;2023-02-24T14:41:46;6.30;99.90
9849;DHT22;4963;51.444;6.528;2023-02-24T14:44:22;6.30;99.90
9849;DHT22;4963;51.444;6.528;2023-02-24T14:46:51;6.40;99.90
9849;DHT22;4963;51.444;6.528;2023-02-24T14:49:22;6.50;99.90
9849;DHT22;4963;51.444;6.528;2023-02-24T14:51:53;6.40;99.90
9849;DHT22;4963;51.444;6.528;2023-02-24T14:54:29;6.40;99.90
9849;DHT22;4963;51.444;6.528;2023-02-24T14:56:58;6.40;99.90
9849;DHT22;4963;51.444;6.528;2023-02-24T14:59:28;6.50;99.90
9849;DHT22;4963;51.444;6.528;2023-02-24T15:01:58;6.50;99.90
9849;DHT22;4963;51.444;6.528;2023-02-24T15:04:31;6.50;99.90
9849;DHT22;4963;51.444;6.528;2023-02-24T15:07:01;6.50;99.90
9849;DHT22;4963;51.444;6.528;2023-02-24T15:09:33;6.50;99.90
9849;DHT22;4963;51.444;6.528;2023-02-24T15:12:10;6.60;99.90
9849;DHT22;4963;51.444;6.528;2023-02-24T15:14:37;6.60;99.90
9849;DHT22;4963;51.444;6.528;2023-02-24T15:17:14;6.70;99.90
9849;DHT22;4963;51.444;6.528;2023-02-24T15:19:42;6.60;99.90
9849;DHT22;4963;51.444;6.528;2023-02-24T15:22:22;6.60;99.90
9849;DHT22;4963;51.444;6.528;2023-02-24T15:24:50;6.70;99.90
9849;DHT22;4963;51.444;6.528;2023-02-24T15:27:23;6.70;99.90
9849;DHT22;4963;51.444;6.528;2023-02-24T15:30:03;6.80;99.90
9849;DHT22;4963;51.444;6.528;2023-02-24T15:32:36;6.80;99.90
9849;DHT22;4963;51.444;6.528;2023-02-24T15:35:03;6.80;99.90
9849;DHT22;4963;51.444;6.528;2023-02-24T15:37:37;6.80;99.90
9849;DHT22;4963;51.444;6.528;2023-02-24T15:40:15;6.80;99.90
9849;DHT22;4963;51.444;6.528;2023-02-24T15:42:48;6.70;99.90
9849;DHT22;4963;51.444;6.528;2023-02-24T15:45:23;6.90;99.90
9849;DHT22;4963;51.444;6.528;2023-02-24T15:47:53;6.80;99.90
9849;DHT22;4963;51.444;6.528;2023-02-24T15:50:21;6.80;99.90
9849;DHT22;4963;51.444;6.528;2023-02-24T15:52:48;6.80;99.90
9849;DHT22;4963;51.444;6.528;2023-02-24T15:55:16;6.80;99.90
9849;DHT22;4963;51.444;6.528;2023-02-24T15:57:43;6.80;99.90
9849;DHT22;4963;51.444;6.528;2023-02-24T16:00:13;6.80;99.90
9849;DHT22;4963;51.444;6.528;2023-02-24T16:02:42;6.80;99.90
9849;DHT22;4963;51.444;6.528;2023-02-24T16:05:12;6.80;99.90
9849;DHT22;4963;51.444;6.528;2023-02-24T16:07:40;6.80;99.90
9849;DHT22;4963;51.444;6.528;2023-02-24T16:10:15;6.70;99.90
9849;DHT22;4963;51.444;6.528;2023-02-24T16:12:46;6.60;99.90
9849;DHT22;4963;51.444;6.528;2023-02-24T16:15:20;6.60;99.90
9849;DHT22;4963;51.444;6.528;2023-02-24T16:17:47;6.60;99.90
9849;DHT22;4963;51.444;6.528;2023-02-24T16:20:17;6.60;99.90
9849;DHT22;4963;51.444;6.528;2023-02-24T16:22:44;6.50;99.90
9849;DHT22;4963;51.444;6.528;2023-02-24T16:25:14;6.60;99.90
9849;DHT22;4963;51.444;6.528;2023-02-24T16:27:42;6.70;99.90
9849;DHT22;4963;51.444;6.528;2023-02-24T16:30:14;6.70;99.90
9849;DHT22;4963;51.444;6.528;2023-02-24T16:32:41;6.60;99.90
9849;DHT22;4963;51.444;6.528;2023-02-24T16:35:10;6.80;99.90
9849;DHT22;4963;51.444;6.528;2023-02-24T16:37:38;6.70;99.90
9849;DHT22;4963;51.444;6.528;2023-02-24T16:40:16;6.80;99.90
9849;DHT22;4963;51.444;6.528;2023-02-24T16:42:44;6.80;99.90
9849;DHT22;4963;51.444;6.528;2023-02-24T16:45:11;6.70;99.90
9849;DHT22;4963;51.444;6.528;2023-02-24T16:47:38;6.70;99.90
9849;DHT22;4963;51.444;6.528;2023-02-24T16:50:05;6.80;99.90
9849;DHT22;4963;51.444;6.528;2023-02-24T16:52:32;6.80;99.90
9849;DHT22;4963;51.444;6.528;2023-02-24T16:55:00;6.80;99.90